sensor_id;sensor_type;location;lat;lon;timestamp;P1;durP1;ratioP1;P2;durP2;ratioP2
20000;SDS011;10161;41.188;-8.642;2023-06-22T00:02:07;3.70;;;3.30;;
20000;SDS011;10161;41.188;-8.642;2023-06-22T00:04:34;3.80;;;3.33;;
20000;SDS011;10161;41.188;-8.642;2023-06-22T00:07:02;3.60;;;3.07;;
20000;SDS011;10161;41.188;-8.642;2023-06-22T00:09:30;3.50;;;3.20;;
20000;SDS011;10161;41.188;-8.642;2023-06-22T00:11:57;3.33;;;3.00;;
20000;SDS011;10161;41.188;-8.642;2023-06-22T00:14:25;3.70;;;3.17;;
20000;SDS011;10161;41.188;-8.642;2023-06-22T00:16:52;3.43;;;3.10;;
20000;SDS011;10161;41.188;-8.642;2023-06-22T00:19:22;3.70;;;3.40;;
20000;SDS011;10161;41.188;-8.642;2023-06-22T00:21:49;3.73;;;3.00;;
20000;SDS011;10161;41.188;-8.642;2023-06-22T00:24:19;4.67;;;3.03;;
20000;SDS011;10161;41.188;-8.642;2023-06-22T00:26:47;3.13;;;2.93;;
20000;SDS011;10161;41.188;-8.642;2023-06-22T00:29:16;2.97;;;2.77;;
20000;SDS011;10161;41.188;-8.642;2023-06-22T00:31:44;3.97;;;3.40;;
20000;SDS011;10161;41.188;-8.642;2023-06-22T00:34:11;6.13;;;3.23;;
20000;SDS011;10161;41.188;-8.642;2023-06-22T00:36:38;4.70;;;3.70;;
20000;SDS011;10161;41.188;-8.642;2023-06-22T00:39:06;3.40;;;3.10;;
20000;SDS011;10161;41.188;-8.642;2023-06-22T00:41:35;3.20;;;2.90;;
20000;SDS011;10161;41.188;-8.642;2023-06-22T00:44:02;5.50;;;3.30;;
20000;SDS011;10161;41.188;-8.642;2023-06-22T00:46:32;4.97;;;3.50;;
20000;SDS011;10161;41.188;-8.642;2023-06-22T00:48:58;3.57;;;3.23;;
20000;SDS011;10161;41.188;-8.642;2023-06-22T00:51:26;3.97;;;3.30;;
20000;SDS011;10161;41.188;-8.642;2023-06-22T00:53:53;3.50;;;2.97;;
20000;SDS011;10161;41.188;-8.642;2023-06-22T00:56:20;3.80;;;3.10;;
20000;SDS011;10161;41.188;-8.642;2023-06-22T00:58:51;3.70;;;3.20;;
20000;SDS011;10161;41.188;-8.642;2023-06-22T01:01:19;3.43;;;3.13;;
20000;SDS011;10161;41.188;-8.642;2023-06-22T01:03:49;6.23;;;3.27;;
20000;SDS011;10161;41.188;-8.642;2023-06-22T01:06:19;4.77;;;3.77;;
20000;SDS011;10161;41.188;-8.642;2023-06-22T01:08:53;4.13;;;3.10;;
20000;SDS011;10161;41.188;-8.642;2023-06-22T01:11:27;5.60;;;3.13;;
20000;SDS011;10161;41.188;-8.642;2023-06-22T01:14:02;4.17;;;3.27;;
20000;SDS011;10161;41.188;-8.642;2023-06-22T01:16:33;3.50;;;3.20;;
20000;SDS011;10161;41.188;-8.642;2023-06-22T01:19:05;4.60;;;3.13;;
20000;SDS011;10161;41.188;-8.642;2023-06-22T01:21:37;5.73;;;3.73;;
20000;SDS011;10161;41.188;-8.642;2023-06-22T01:24:10;5.60;;;3.50;;
20000;SDS011;10161;41.188;-8.642;2023-06-22T01:26:43;5.30;;;3.67;;
20000;SDS011;10161;41.188;-8.642;2023-06-22T01:29:22;4.13;;;3.70;;
20000;SDS011;10161;41.188;-8.642;2023-06-22T01:31:51;4.43;;;3.87;;
20000;SDS011;10161;41.188;-8.642;2023-06-22T01:34:19;4.23;;;3.50;;
20000;SDS011;10161;41.188;-8.642;2023-06-22T01:36:46;5.97;;;3.30;;
20000;SDS011;10161;41.188;-8.642;2023-06-22T01:39:14;5.10;;;3.73;;
20000;SDS011;10161;41.188;-8.642;2023-06-22T01:41:41;8.50;;;4.70;;
20000;SDS011;10161;41.188;-8.642;2023-06-22T01:44:09;7.87;;;4.20;;
20000;SDS011;10161;41.188;-8.642;2023-06-22T01:46:37;4.47;;;4.07;;
20000;SDS011;10161;41.188;-8.642;2023-06-22T01:49:05;5.77;;;4.20;;
20000;SDS011;10161;41.188;-8.642;2023-06-22T01:51:32;9.07;;;5.07;;
20000;SDS011;10161;41.188;-8.642;2023-06-22T01:53:59;4.43;;;3.90;;
20000;SDS011;10161;41.188;-8.642;2023-06-22T01:56:27;4.67;;;3.87;;
20000;SDS011;10161;41.188;-8.642;2023-06-22T01:58:55;4.97;;;4.00;;
20000;SDS011;10161;41.188;-8.642;2023-06-22T02:01:27;4.40;;;3.70;;
20000;SDS011;10161;41.188;-8.642;2023-06-22T02:04:02;6.00;;;4.30;;
20000;SDS011;10161;41.188;-8.642;2023-06-22T02:06:33;6.47;;;4.10;;
20000;SDS011;10161;41.188;-8.642;2023-06-22T02:09:02;6.20;;;4.70;;
20000;SDS011;10161;41.188;-8.642;2023-06-22T02:11:34;3.83;;;3.47;;
20000;SDS011;10161;41.188;-8.642;2023-06-22T02:14:01;4.90;;;3.60;;
20000;SDS011;10161;41.188;-8.642;2023-06-22T02:16:29;3.83;;;3.40;;
20000;SDS011;10161;41.188;-8.642;2023-06-22T02:19:00;4.40;;;4.00;;
20000;SDS011;10161;41.188;-8.642;2023-06-22T02:21:29;5.10;;;4.17;;
20000;SDS011;10161;41.188;-8.642;2023-06-22T02:23:57;4.00;;;3.63;;
20000;SDS011;10161;41.188;-8.642;2023-06-22T02:26:25;3.87;;;3.57;;
20000;SDS011;10161;41.188;-8.642;2023-06-22T02:28:52;4.40;;;4.00;;
20000;SDS011;10161;41.188;-8.642;2023-06-22T02:31:19;4.13;;;3.70;;
20000;SDS011;10161;41.188;-8.642;2023-06-22T02:33:46;5.57;;;4.13;;
20000;SDS011;10161;41.188;-8.642;2023-06-22T02:36:15;4.43;;;3.90;;
20000;SDS011;10161;41.188;-8.642;2023-06-22T02:38:47;4.27;;;3.70;;
20000;SDS011;10161;41.188;-8.642;2023-06-22T02:41:15;3.93;;;3.63;;
20000;SDS011;10161;41.188;-8.642;2023-06-22T02:43:44;4.83;;;4.20;;
20000;SDS011;10161;41.188;-8.642;2023-06-22T02:46:12;4.77;;;4.20;;
20000;SDS011;10161;41.188;-8.642;2023-06-22T02:48:39;3.80;;;3.50;;
20000;SDS011;10161;41.188;-8.642;2023-06-22T02:51:06;4.67;;;4.20;;
20000;SDS011;10161;41.188;-8.642;2023-06-22T02:53:35;4.60;;;4.20;;
20000;SDS011;10161;41.188;-8.642;2023-06-22T02:56:02;6.10;;;4.63;;
20000;SDS011;10161;41.188;-8.642;2023-06-22T02:58:30;5.30;;;4.80;;
20000;SDS011;10161;41.188;-8.642;2023-06-22T03:01:03;5.20;;;4.63;;
20000;SDS011;10161;41.188;-8.642;2023-06-22T03:03:30;4.00;;;3.70;;
20000;SDS011;10161;41.188;-8.642;2023-06-22T03:05:57;4.87;;;4.47;;
20000;SDS011;10161;41.188;-8.642;2023-06-22T03:08:27;4.67;;;4.27;;
20000;SDS011;10161;41.188;-8.642;2023-06-22T03:10:55;5.80;;;4.20;;
20000;SDS011;10161;41.188;-8.642;2023-06-22T03:13:23;4.77;;;4.37;;
20000;SDS011;10161;41.188;-8.642;2023-06-22T03:15:50;4.73;;;4.30;;
20000;SDS011;10161;41.188;-8.642;2023-06-22T03:18:17;4.27;;;3.87;;
20000;SDS011;10161;41.188;-8.642;2023-06-22T03:20:44;4.70;;;4.30;;
20000;SDS011;10161;41.188;-8.642;2023-06-22T03:23:11;4.73;;;4.33;;
20000;SDS011;10161;41.188;-8.642;2023-06-22T03:25:38;5.00;;;4.53;;
20000;SDS011;10161;41.188;-8.642;2023-06-22T03:28:07;5.23;;;4.77;;
20000;SDS011;10161;41.188;-8.642;2023-06-22T03:30:34;5.30;;;4.80;;
20000;SDS011;10161;41.188;-8.642;2023-06-22T03:33:01;5.57;;;5.07;;
20000;SDS011;10161;41.188;-8.642;2023-06-22T03:35:28;5.90;;;4.97;;
20000;SDS011;10161;41.188;-8.642;2023-06-22T03:37:55;5.10;;;4.60;;
20000;SDS011;10161;41.188;-8.642;2023-06-22T03:40:22;5.67;;;5.07;;
20000;SDS011;10161;41.188;-8.642;2023-06-22T03:42:49;5.50;;;4.87;;
20000;SDS011;10161;41.188;-8.642;2023-06-22T03:45:18;5.17;;;4.67;;
20000;SDS011;10161;41.188;-8.642;2023-06-22T03:47:45;5.93;;;5.27;;
20000;SDS011;10161;41.188;-8.642;2023-06-22T03:50:12;6.07;;;5.40;;
20000;SDS011;10161;41.188;-8.642;2023-06-22T03:52:40;5.97;;;5.37;;
20000;SDS011;10161;41.188;-8.642;2023-06-22T03:55:07;5.73;;;5.20;;
20000;SDS011;10161;41.188;-8.642;2023-06-22T03:57:34;5.80;;;5.30;;
20000;SDS011;10161;41.188;-8.642;2023-06-22T04:00:01;5.63;;;5.00;;
20000;SDS011;10161;41.188;-8.642;2023-06-22T04:02:32;5.07;;;4.67;;
20000;SDS011;10161;41.188;-8.642;2023-06-22T04:04:59;5.97;;;5.37;;
20000;SDS011;10161;41.188;-8.642;2023-06-22T04:07:26;5.90;;;5.03;;
20000;SDS011;10161;41.188;-8.642;2023-06-22T04:09:53;5.43;;;4.93;;
20000;SDS011;10161;41.188;-8.642;2023-06-22T04:12:20;6.27;;;5.27;;
20000;SDS011;10161;41.188;-8.642;2023-06-22T04:14:47;5.50;;;5.00;;
20000;SDS011;10161;41.188;-8.642;2023-06-22T04:17:14;6.80;;;5.20;;
20000;SDS011;10161;41.188;-8.642;2023-06-22T04:19:44;6.20;;;5.60;;
20000;SDS011;10161;41.188;-8.642;2023-06-22T04:22:11;5.43;;;5.00;;
20000;SDS011;10161;41.188;-8.642;2023-06-22T04:24:38;5.40;;;4.90;;
20000;SDS011;10161;41.188;-8.642;2023-06-22T04:27:05;5.27;;;4.80;;
20000;SDS011;10161;41.188;-8.642;2023-06-22T04:29:32;5.40;;;4.90;;
20000;SDS011;10161;41.188;-8.642;2023-06-22T04:31:59;5.70;;;5.20;;
20000;SDS011;10161;41.188;-8.642;2023-06-22T04:34:28;5.70;;;5.20;;
20000;SDS011;10161;41.188;-8.642;2023-06-22T04:36:57;5.83;;;5.30;;
20000;SDS011;10161;41.188;-8.642;2023-06-22T04:39:24;7.07;;;5.50;;
20000;SDS011;10161;41.188;-8.642;2023-06-22T04:41:52;5.93;;;5.27;;
20000;SDS011;10161;41.188;-8.642;2023-06-22T04:44:25;5.30;;;4.90;;
20000;SDS011;10161;41.188;-8.642;2023-06-22T04:46:53;5.33;;;4.83;;
20000;SDS011;10161;41.188;-8.642;2023-06-22T04:49:25;6.10;;;5.50;;
20000;SDS011;10161;41.188;-8.642;2023-06-22T04:51:59;6.17;;;5.43;;
20000;SDS011;10161;41.188;-8.642;2023-06-22T04:54:26;6.47;;;5.73;;
20000;SDS011;10161;41.188;-8.642;2023-06-22T04:56:53;6.90;;;5.57;;
20000;SDS011;10161;41.188;-8.642;2023-06-22T04:59:22;6.27;;;5.60;;
20000;SDS011;10161;41.188;-8.642;2023-06-22T05:01:54;6.20;;;5.70;;
20000;SDS011;10161;41.188;-8.642;2023-06-22T05:04:21;6.13;;;5.63;;
20000;SDS011;10161;41.188;-8.642;2023-06-22T05:06:49;6.40;;;5.80;;
20000;SDS011;10161;41.188;-8.642;2023-06-22T05:09:18;6.23;;;5.73;;
20000;SDS011;10161;41.188;-8.642;2023-06-22T05:11:45;6.20;;;5.67;;
20000;SDS011;10161;41.188;-8.642;2023-06-22T05:14:12;5.47;;;5.07;;
20000;SDS011;10161;41.188;-8.642;2023-06-22T05:16:40;6.37;;;5.87;;
20000;SDS011;10161;41.188;-8.642;2023-06-22T05:19:07;7.23;;;6.10;;
20000;SDS011;10161;41.188;-8.642;2023-06-22T05:21:34;6.67;;;6.00;;
20000;SDS011;10161;41.188;-8.642;2023-06-22T05:24:01;6.63;;;6.03;;
20000;SDS011;10161;41.188;-8.642;2023-06-22T05:26:31;6.43;;;5.83;;
20000;SDS011;10161;41.188;-8.642;2023-06-22T05:28:59;6.60;;;6.00;;
20000;SDS011;10161;41.188;-8.642;2023-06-22T05:31:26;7.00;;;6.30;;
20000;SDS011;10161;41.188;-8.642;2023-06-22T05:33:54;7.33;;;6.70;;
20000;SDS011;10161;41.188;-8.642;2023-06-22T05:36:21;6.47;;;5.97;;
20000;SDS011;10161;41.188;-8.642;2023-06-22T05:38:50;7.20;;;6.60;;
20000;SDS011;10161;41.188;-8.642;2023-06-22T05:41:17;7.77;;;6.97;;
20000;SDS011;10161;41.188;-8.642;2023-06-22T05:43:45;7.23;;;6.63;;
20000;SDS011;10161;41.188;-8.642;2023-06-22T05:46:12;7.30;;;6.70;;
20000;SDS011;10161;41.188;-8.642;2023-06-22T05:48:39;7.20;;;6.50;;
20000;SDS011;10161;41.188;-8.642;2023-06-22T05:51:06;8.13;;;7.30;;
20000;SDS011;10161;41.188;-8.642;2023-06-22T05:53:34;7.60;;;6.80;;
20000;SDS011;10161;41.188;-8.642;2023-06-22T05:56:00;8.23;;;6.97;;
20000;SDS011;10161;41.188;-8.642;2023-06-22T05:58:29;7.60;;;6.90;;
20000;SDS011;10161;41.188;-8.642;2023-06-22T06:00:57;7.50;;;6.77;;
20000;SDS011;10161;41.188;-8.642;2023-06-22T06:03:25;8.33;;;6.57;;
20000;SDS011;10161;41.188;-8.642;2023-06-22T06:05:53;7.90;;;7.10;;
20000;SDS011;10161;41.188;-8.642;2023-06-22T06:08:21;8.13;;;6.70;;
20000;SDS011;10161;41.188;-8.642;2023-06-22T06:10:48;9.13;;;6.73;;
20000;SDS011;10161;41.188;-8.642;2023-06-22T06:13:18;7.53;;;6.80;;
20000;SDS011;10161;41.188;-8.642;2023-06-22T06:15:45;7.70;;;7.00;;
20000;SDS011;10161;41.188;-8.642;2023-06-22T06:18:14;7.70;;;7.00;;
20000;SDS011;10161;41.188;-8.642;2023-06-22T06:20:41;7.23;;;6.63;;
20000;SDS011;10161;41.188;-8.642;2023-06-22T06:23:08;7.63;;;6.80;;
20000;SDS011;10161;41.188;-8.642;2023-06-22T06:25:35;7.43;;;6.73;;
20000;SDS011;10161;41.188;-8.642;2023-06-22T06:28:04;8.47;;;7.70;;
20000;SDS011;10161;41.188;-8.642;2023-06-22T06:30:32;7.47;;;6.67;;
20000;SDS011;10161;41.188;-8.642;2023-06-22T06:32:59;8.10;;;7.00;;
20000;SDS011;10161;41.188;-8.642;2023-06-22T06:35:27;8.17;;;7.37;;
20000;SDS011;10161;41.188;-8.642;2023-06-22T06:37:54;7.50;;;6.87;;
20000;SDS011;10161;41.188;-8.642;2023-06-22T06:40:21;8.47;;;7.33;;
20000;SDS011;10161;41.188;-8.642;2023-06-22T06:42:48;7.77;;;6.90;;
20000;SDS011;10161;41.188;-8.642;2023-06-22T06:45:16;7.10;;;6.50;;
20000;SDS011;10161;41.188;-8.642;2023-06-22T06:47:44;7.20;;;6.60;;
20000;SDS011;10161;41.188;-8.642;2023-06-22T06:50:11;8.20;;;7.40;;
20000;SDS011;10161;41.188;-8.642;2023-06-22T06:52:40;9.70;;;7.20;;
20000;SDS011;10161;41.188;-8.642;2023-06-22T06:55:08;6.93;;;6.23;;
20000;SDS011;10161;41.188;-8.642;2023-06-22T06:57:37;7.40;;;6.67;;
20000;SDS011;10161;41.188;-8.642;2023-06-22T07:00:04;7.30;;;6.60;;
20000;SDS011;10161;41.188;-8.642;2023-06-22T07:02:35;7.17;;;6.50;;
20000;SDS011;10161;41.188;-8.642;2023-06-22T07:05:02;7.43;;;6.80;;
20000;SDS011;10161;41.188;-8.642;2023-06-22T07:07:30;6.83;;;6.20;;
20000;SDS011;10161;41.188;-8.642;2023-06-22T07:09:59;7.47;;;6.73;;
20000;SDS011;10161;41.188;-8.642;2023-06-22T07:12:26;7.33;;;6.73;;
20000;SDS011;10161;41.188;-8.642;2023-06-22T07:14:53;8.20;;;6.63;;
20000;SDS011;10161;41.188;-8.642;2023-06-22T07:17:20;7.20;;;6.60;;
20000;SDS011;10161;41.188;-8.642;2023-06-22T07:19:47;7.63;;;6.93;;
20000;SDS011;10161;41.188;-8.642;2023-06-22T07:22:14;6.50;;;5.90;;
20000;SDS011;10161;41.188;-8.642;2023-06-22T07:24:41;6.70;;;6.10;;
20000;SDS011;10161;41.188;-8.642;2023-06-22T07:27:10;7.20;;;6.50;;
20000;SDS011;10161;41.188;-8.642;2023-06-22T07:29:37;7.30;;;6.60;;
20000;SDS011;10161;41.188;-8.642;2023-06-22T07:32:06;6.43;;;5.87;;
20000;SDS011;10161;41.188;-8.642;2023-06-22T07:34:33;6.30;;;5.70;;
20000;SDS011;10161;41.188;-8.642;2023-06-22T07:37:01;7.53;;;6.73;;
20000;SDS011;10161;41.188;-8.642;2023-06-22T07:39:29;6.90;;;6.30;;
20000;SDS011;10161;41.188;-8.642;2023-06-22T07:41:56;6.87;;;5.77;;
20000;SDS011;10161;41.188;-8.642;2023-06-22T07:44:24;6.40;;;5.80;;
20000;SDS011;10161;41.188;-8.642;2023-06-22T07:46:51;7.10;;;6.50;;
20000;SDS011;10161;41.188;-8.642;2023-06-22T07:49:18;7.17;;;5.87;;
20000;SDS011;10161;41.188;-8.642;2023-06-22T07:51:46;6.47;;;5.87;;
20000;SDS011;10161;41.188;-8.642;2023-06-22T07:54:13;6.07;;;5.37;;
20000;SDS011;10161;41.188;-8.642;2023-06-22T07:56:41;6.87;;;6.10;;
20000;SDS011;10161;41.188;-8.642;2023-06-22T07:59:09;6.90;;;6.30;;
20000;SDS011;10161;41.188;-8.642;2023-06-22T08:01:37;6.17;;;5.57;;
20000;SDS011;10161;41.188;-8.642;2023-06-22T08:04:04;6.73;;;6.13;;
20000;SDS011;10161;41.188;-8.642;2023-06-22T08:06:32;6.63;;;6.00;;
20000;SDS011;10161;41.188;-8.642;2023-06-22T08:08:59;6.70;;;5.90;;
20000;SDS011;10161;41.188;-8.642;2023-06-22T08:11:26;7.33;;;6.03;;
20000;SDS011;10161;41.188;-8.642;2023-06-22T08:13:53;6.90;;;6.20;;
20000;SDS011;10161;41.188;-8.642;2023-06-22T08:16:23;5.60;;;5.17;;
20000;SDS011;10161;41.188;-8.642;2023-06-22T08:18:51;5.30;;;4.90;;
20000;SDS011;10161;41.188;-8.642;2023-06-22T08:21:18;7.20;;;5.60;;
20000;SDS011;10161;41.188;-8.642;2023-06-22T08:23:45;6.40;;;5.90;;
20000;SDS011;10161;41.188;-8.642;2023-06-22T08:26:13;5.70;;;5.20;;
20000;SDS011;10161;41.188;-8.642;2023-06-22T08:28:40;6.40;;;5.60;;
20000;SDS011;10161;41.188;-8.642;2023-06-22T08:31:07;6.60;;;6.00;;
20000;SDS011;10161;41.188;-8.642;2023-06-22T08:33:39;9.07;;;5.80;;
20000;SDS011;10161;41.188;-8.642;2023-06-22T08:36:09;7.23;;;6.53;;
20000;SDS011;10161;41.188;-8.642;2023-06-22T08:38:38;6.37;;;5.83;;
20000;SDS011;10161;41.188;-8.642;2023-06-22T08:41:05;6.83;;;5.70;;
20000;SDS011;10161;41.188;-8.642;2023-06-22T08:43:33;5.70;;;5.10;;
20000;SDS011;10161;41.188;-8.642;2023-06-22T08:46:00;7.27;;;6.47;;
20000;SDS011;10161;41.188;-8.642;2023-06-22T08:48:27;6.23;;;5.70;;
20000;SDS011;10161;41.188;-8.642;2023-06-22T08:50:54;6.13;;;5.03;;
20000;SDS011;10161;41.188;-8.642;2023-06-22T08:53:23;5.57;;;5.03;;
20000;SDS011;10161;41.188;-8.642;2023-06-22T08:55:50;6.37;;;5.77;;
20000;SDS011;10161;41.188;-8.642;2023-06-22T08:58:17;6.13;;;5.53;;
20000;SDS011;10161;41.188;-8.642;2023-06-22T09:00:46;5.50;;;5.00;;
20000;SDS011;10161;41.188;-8.642;2023-06-22T09:03:13;6.47;;;4.87;;
20000;SDS011;10161;41.188;-8.642;2023-06-22T09:05:40;5.53;;;5.03;;
20000;SDS011;10161;41.188;-8.642;2023-06-22T09:08:07;8.10;;;5.20;;
20000;SDS011;10161;41.188;-8.642;2023-06-22T09:10:36;8.10;;;5.70;;
20000;SDS011;10161;41.188;-8.642;2023-06-22T09:13:03;6.20;;;5.40;;
20000;SDS011;10161;41.188;-8.642;2023-06-22T09:15:30;6.33;;;5.63;;
20000;SDS011;10161;41.188;-8.642;2023-06-22T09:17:57;6.40;;;5.80;;
20000;SDS011;10161;41.188;-8.642;2023-06-22T09:20:24;7.10;;;5.70;;
20000;SDS011;10161;41.188;-8.642;2023-06-22T09:22:51;9.90;;;6.40;;
20000;SDS011;10161;41.188;-8.642;2023-06-22T09:25:19;7.53;;;6.23;;
20000;SDS011;10161;41.188;-8.642;2023-06-22T09:27:47;6.00;;;5.40;;
20000;SDS011;10161;41.188;-8.642;2023-06-22T09:30:15;7.93;;;6.30;;
20000;SDS011;10161;41.188;-8.642;2023-06-22T09:32:42;7.20;;;5.90;;
20000;SDS011;10161;41.188;-8.642;2023-06-22T09:35:09;7.00;;;6.13;;
20000;SDS011;10161;41.188;-8.642;2023-06-22T09:37:38;7.47;;;6.70;;
20000;SDS011;10161;41.188;-8.642;2023-06-22T09:40:06;7.20;;;6.17;;
20000;SDS011;10161;41.188;-8.642;2023-06-22T09:42:38;6.90;;;5.80;;
20000;SDS011;10161;41.188;-8.642;2023-06-22T09:45:07;7.90;;;6.47;;
20000;SDS011;10161;41.188;-8.642;2023-06-22T09:47:34;6.93;;;6.23;;
20000;SDS011;10161;41.188;-8.642;2023-06-22T09:50:02;7.83;;;6.33;;
20000;SDS011;10161;41.188;-8.642;2023-06-22T09:52:29;8.00;;;6.67;;
20000;SDS011;10161;41.188;-8.642;2023-06-22T09:54:57;6.53;;;5.93;;
20000;SDS011;10161;41.188;-8.642;2023-06-22T09:57:24;8.23;;;6.80;;
20000;SDS011;10161;41.188;-8.642;2023-06-22T09:59:51;7.77;;;6.97;;
20000;SDS011;10161;41.188;-8.642;2023-06-22T10:02:19;7.87;;;7.10;;
20000;SDS011;10161;41.188;-8.642;2023-06-22T10:04:47;7.60;;;6.80;;
20000;SDS011;10161;41.188;-8.642;2023-06-22T10:07:14;6.73;;;6.03;;
20000;SDS011;10161;41.188;-8.642;2023-06-22T10:09:41;5.97;;;5.40;;
20000;SDS011;10161;41.188;-8.642;2023-06-22T10:12:08;7.53;;;6.20;;
20000;SDS011;10161;41.188;-8.642;2023-06-22T10:14:35;8.57;;;6.53;;
20000;SDS011;10161;41.188;-8.642;2023-06-22T10:17:02;7.50;;;6.77;;
20000;SDS011;10161;41.188;-8.642;2023-06-22T10:19:34;9.77;;;7.80;;
20000;SDS011;10161;41.188;-8.642;2023-06-22T10:22:02;7.40;;;6.80;;
20000;SDS011;10161;41.188;-8.642;2023-06-22T10:24:30;10.30;;;7.47;;
20000;SDS011;10161;41.188;-8.642;2023-06-22T10:26:57;9.30;;;7.80;;
20000;SDS011;10161;41.188;-8.642;2023-06-22T10:29:24;10.93;;;8.03;;
20000;SDS011;10161;41.188;-8.642;2023-06-22T10:31:51;10.80;;;8.10;;
20000;SDS011;10161;41.188;-8.642;2023-06-22T10:34:19;10.40;;;8.57;;
20000;SDS011;10161;41.188;-8.642;2023-06-22T10:36:47;8.93;;;7.60;;
20000;SDS011;10161;41.188;-8.642;2023-06-22T10:39:14;11.07;;;8.10;;
20000;SDS011;10161;41.188;-8.642;2023-06-22T10:41:41;11.20;;;8.80;;
20000;SDS011;10161;41.188;-8.642;2023-06-22T10:44:08;10.13;;;8.87;;
20000;SDS011;10161;41.188;-8.642;2023-06-22T10:46:36;7.03;;;6.33;;
20000;SDS011;10161;41.188;-8.642;2023-06-22T10:49:03;9.80;;;6.30;;
20000;SDS011;10161;41.188;-8.642;2023-06-22T10:51:30;9.63;;;7.53;;
20000;SDS011;10161;41.188;-8.642;2023-06-22T10:53:59;7.37;;;6.67;;
20000;SDS011;10161;41.188;-8.642;2023-06-22T10:56:26;8.77;;;7.60;;
20000;SDS011;10161;41.188;-8.642;2023-06-22T10:58:53;9.70;;;8.80;;
20000;SDS011;10161;41.188;-8.642;2023-06-22T11:01:20;11.40;;;9.70;;
20000;SDS011;10161;41.188;-8.642;2023-06-22T11:03:47;13.87;;;9.27;;
20000;SDS011;10161;41.188;-8.642;2023-06-22T11:06:14;8.87;;;7.93;;
20000;SDS011;10161;41.188;-8.642;2023-06-22T11:08:43;10.13;;;8.87;;
20000;SDS011;10161;41.188;-8.642;2023-06-22T11:11:12;10.30;;;9.20;;
20000;SDS011;10161;41.188;-8.642;2023-06-22T11:13:39;9.47;;;8.30;;
20000;SDS011;10161;41.188;-8.642;2023-06-22T11:16:06;9.53;;;8.53;;
20000;SDS011;10161;41.188;-8.642;2023-06-22T11:18:33;9.47;;;8.57;;
20000;SDS011;10161;41.188;-8.642;2023-06-22T11:21:00;8.70;;;8.00;;
20000;SDS011;10161;41.188;-8.642;2023-06-22T11:23:27;11.43;;;9.20;;
20000;SDS011;10161;41.188;-8.642;2023-06-22T11:25:55;9.90;;;9.00;;
20000;SDS011;10161;41.188;-8.642;2023-06-22T11:28:23;10.77;;;8.83;;
20000;SDS011;10161;41.188;-8.642;2023-06-22T11:30:51;9.03;;;7.67;;
20000;SDS011;10161;41.188;-8.642;2023-06-22T11:33:18;8.87;;;7.97;;
20000;SDS011;10161;41.188;-8.642;2023-06-22T11:35:45;11.33;;;9.50;;
20000;SDS011;10161;41.188;-8.642;2023-06-22T11:38:12;9.50;;;8.60;;
20000;SDS011;10161;41.188;-8.642;2023-06-22T11:40:40;10.43;;;9.43;;
20000;SDS011;10161;41.188;-8.642;2023-06-22T11:43:06;10.83;;;9.73;;
20000;SDS011;10161;41.188;-8.642;2023-06-22T11:45:35;10.30;;;8.97;;
20000;SDS011;10161;41.188;-8.642;2023-06-22T11:48:02;10.70;;;9.33;;
20000;SDS011;10161;41.188;-8.642;2023-06-22T11:50:29;11.70;;;8.87;;
20000;SDS011;10161;41.188;-8.642;2023-06-22T11:53:00;10.43;;;9.20;;
20000;SDS011;10161;41.188;-8.642;2023-06-22T11:55:28;9.63;;;8.63;;
20000;SDS011;10161;41.188;-8.642;2023-06-22T11:57:55;8.13;;;7.37;;
20000;SDS011;10161;41.188;-8.642;2023-06-22T12:00:25;9.00;;;7.93;;
20000;SDS011;10161;41.188;-8.642;2023-06-22T12:02:54;8.90;;;7.90;;
20000;SDS011;10161;41.188;-8.642;2023-06-22T12:05:21;10.13;;;9.23;;
20000;SDS011;10161;41.188;-8.642;2023-06-22T12:07:49;8.07;;;7.33;;
20000;SDS011;10161;41.188;-8.642;2023-06-22T12:10:16;8.23;;;7.43;;
20000;SDS011;10161;41.188;-8.642;2023-06-22T12:12:44;8.57;;;7.77;;
20000;SDS011;10161;41.188;-8.642;2023-06-22T12:15:10;8.20;;;7.40;;
20000;SDS011;10161;41.188;-8.642;2023-06-22T12:17:37;9.40;;;8.50;;
20000;SDS011;10161;41.188;-8.642;2023-06-22T12:20:07;8.50;;;7.60;;
20000;SDS011;10161;41.188;-8.642;2023-06-22T12:22:35;9.00;;;8.07;;
20000;SDS011;10161;41.188;-8.642;2023-06-22T12:25:03;12.50;;;9.60;;
20000;SDS011;10161;41.188;-8.642;2023-06-22T12:27:30;10.50;;;9.50;;
20000;SDS011;10161;41.188;-8.642;2023-06-22T12:29:57;10.53;;;9.60;;
20000;SDS011;10161;41.188;-8.642;2023-06-22T12:32:24;11.80;;;8.93;;
20000;SDS011;10161;41.188;-8.642;2023-06-22T12:34:51;8.83;;;8.00;;
20000;SDS011;10161;41.188;-8.642;2023-06-22T12:37:19;9.53;;;8.60;;
20000;SDS011;10161;41.188;-8.642;2023-06-22T12:39:48;9.63;;;8.80;;
20000;SDS011;10161;41.188;-8.642;2023-06-22T12:42:16;9.10;;;8.27;;
20000;SDS011;10161;41.188;-8.642;2023-06-22T12:44:43;9.93;;;8.10;;
20000;SDS011;10161;41.188;-8.642;2023-06-22T12:47:10;9.10;;;8.20;;
20000;SDS011;10161;41.188;-8.642;2023-06-22T12:49:38;7.67;;;7.00;;
20000;SDS011;10161;41.188;-8.642;2023-06-22T12:52:08;10.37;;;8.40;;
20000;SDS011;10161;41.188;-8.642;2023-06-22T12:54:37;9.70;;;8.77;;
20000;SDS011;10161;41.188;-8.642;2023-06-22T12:57:04;8.70;;;7.90;;
20000;SDS011;10161;41.188;-8.642;2023-06-22T12:59:32;11.03;;;8.53;;
20000;SDS011;10161;41.188;-8.642;2023-06-22T13:01:59;8.97;;;8.07;;
20000;SDS011;10161;41.188;-8.642;2023-06-22T13:04:26;8.90;;;8.10;;
20000;SDS011;10161;41.188;-8.642;2023-06-22T13:06:53;8.53;;;7.40;;
20000;SDS011;10161;41.188;-8.642;2023-06-22T13:09:20;8.70;;;8.00;;
20000;SDS011;10161;41.188;-8.642;2023-06-22T13:11:48;9.73;;;8.33;;
20000;SDS011;10161;41.188;-8.642;2023-06-22T13:14:17;9.90;;;8.40;;
20000;SDS011;10161;41.188;-8.642;2023-06-22T13:16:44;9.87;;;8.20;;
20000;SDS011;10161;41.188;-8.642;2023-06-22T13:19:11;9.60;;;8.60;;
20000;SDS011;10161;41.188;-8.642;2023-06-22T13:21:38;8.37;;;7.67;;
20000;SDS011;10161;41.188;-8.642;2023-06-22T13:24:06;9.83;;;6.93;;
20000;SDS011;10161;41.188;-8.642;2023-06-22T13:26:33;10.07;;;8.80;;
20000;SDS011;10161;41.188;-8.642;2023-06-22T13:29:01;9.53;;;8.53;;
20000;SDS011;10161;41.188;-8.642;2023-06-22T13:31:29;9.20;;;7.80;;
20000;SDS011;10161;41.188;-8.642;2023-06-22T13:33:56;8.70;;;8.00;;
20000;SDS011;10161;41.188;-8.642;2023-06-22T13:36:22;7.80;;;7.20;;
20000;SDS011;10161;41.188;-8.642;2023-06-22T13:38:49;7.30;;;6.67;;
20000;SDS011;10161;41.188;-8.642;2023-06-22T13:41:16;9.87;;;8.63;;
20000;SDS011;10161;41.188;-8.642;2023-06-22T13:43:43;8.37;;;7.60;;
20000;SDS011;10161;41.188;-8.642;2023-06-22T13:46:12;7.87;;;7.07;;
20000;SDS011;10161;41.188;-8.642;2023-06-22T13:48:39;6.90;;;6.30;;
20000;SDS011;10161;41.188;-8.642;2023-06-22T13:51:06;7.83;;;7.13;;
20000;SDS011;10161;41.188;-8.642;2023-06-22T13:53:33;7.20;;;6.60;;
20000;SDS011;10161;41.188;-8.642;2023-06-22T13:56:00;6.33;;;5.80;;
20000;SDS011;10161;41.188;-8.642;2023-06-22T13:58:27;6.90;;;6.30;;
20000;SDS011;10161;41.188;-8.642;2023-06-22T14:00:54;6.87;;;6.27;;
20000;SDS011;10161;41.188;-8.642;2023-06-22T14:03:23;6.37;;;5.77;;
20000;SDS011;10161;41.188;-8.642;2023-06-22T14:05:51;6.70;;;6.10;;
20000;SDS011;10161;41.188;-8.642;2023-06-22T14:08:20;8.10;;;6.90;;
20000;SDS011;10161;41.188;-8.642;2023-06-22T14:10:49;8.63;;;6.90;;
20000;SDS011;10161;41.188;-8.642;2023-06-22T14:13:16;8.50;;;7.20;;
20000;SDS011;10161;41.188;-8.642;2023-06-22T14:15:42;6.73;;;6.20;;
20000;SDS011;10161;41.188;-8.642;2023-06-22T14:18:09;7.43;;;6.73;;
20000;SDS011;10161;41.188;-8.642;2023-06-22T14:20:38;6.40;;;5.90;;
20000;SDS011;10161;41.188;-8.642;2023-06-22T14:23:05;6.30;;;5.80;;
20000;SDS011;10161;41.188;-8.642;2023-06-22T14:25:32;6.77;;;6.03;;
20000;SDS011;10161;41.188;-8.642;2023-06-22T14:27:59;6.20;;;5.70;;
20000;SDS011;10161;41.188;-8.642;2023-06-22T14:30:26;6.53;;;5.90;;
20000;SDS011;10161;41.188;-8.642;2023-06-22T14:32:53;7.33;;;6.73;;
20000;SDS011;10161;41.188;-8.642;2023-06-22T14:35:20;9.67;;;6.50;;
20000;SDS011;10161;41.188;-8.642;2023-06-22T14:37:51;8.43;;;7.63;;